sensor_id;sensor_type;location;lat;lon;timestamp;P1;durP1;ratioP1;P2;durP2;ratioP2
20699;SDS011;10511;51.232;9.420;2022-09-17T00:02:24;0.97;;;0.97;;
20699;SDS011;10511;51.232;9.420;2022-09-17T00:04:51;0.90;;;0.90;;
20699;SDS011;10511;51.232;9.420;2022-09-17T00:07:18;0.90;;;0.90;;
20699;SDS011;10511;51.232;9.420;2022-09-17T00:09:45;0.90;;;0.90;;
20699;SDS011;10511;51.232;9.420;2022-09-17T00:12:12;1.00;;;1.00;;
20699;SDS011;10511;51.232;9.420;2022-09-17T00:14:40;0.90;;;0.90;;
20699;SDS011;10511;51.232;9.420;2022-09-17T00:17:07;0.90;;;0.90;;
20699;SDS011;10511;51.232;9.420;2022-09-17T00:19:34;0.80;;;0.80;;
20699;SDS011;10511;51.232;9.420;2022-09-17T00:22:01;0.90;;;0.90;;
20699;SDS011;10511;51.232;9.420;2022-09-17T00:24:28;1.00;;;1.00;;
20699;SDS011;10511;51.232;9.420;2022-09-17T00:26:55;0.90;;;0.90;;
20699;SDS011;10511;51.232;9.420;2022-09-17T00:29:22;0.90;;;0.90;;
20699;SDS011;10511;51.232;9.420;2022-09-17T00:31:51;0.90;;;0.90;;
20699;SDS011;10511;51.232;9.420;2022-09-17T00:34:17;0.90;;;0.90;;
20699;SDS011;10511;51.232;9.420;2022-09-17T00:36:44;1.07;;;1.07;;
20699;SDS011;10511;51.232;9.420;2022-09-17T00:39:11;0.90;;;0.90;;
20699;SDS011;10511;51.232;9.420;2022-09-17T00:41:39;1.00;;;1.00;;
20699;SDS011;10511;51.232;9.420;2022-09-17T00:47:09;1.00;;;1.00;;
20699;SDS011;10511;51.232;9.420;2022-09-17T00:49:40;1.00;;;1.00;;
20699;SDS011;10511;51.232;9.420;2022-09-17T00:52:09;1.00;;;1.00;;
20699;SDS011;10511;51.232;9.420;2022-09-17T00:54:41;1.00;;;1.00;;
20699;SDS011;10511;51.232;9.420;2022-09-17T00:57:14;1.00;;;1.00;;
20699;SDS011;10511;51.232;9.420;2022-09-17T00:59:41;1.00;;;1.00;;
20699;SDS011;10511;51.232;9.420;2022-09-17T01:02:10;1.00;;;1.00;;
20699;SDS011;10511;51.232;9.420;2022-09-17T01:04:37;0.93;;;0.93;;
20699;SDS011;10511;51.232;9.420;2022-09-17T01:07:05;1.00;;;1.00;;
20699;SDS011;10511;51.232;9.420;2022-09-17T01:09:39;1.00;;;1.00;;
20699;SDS011;10511;51.232;9.420;2022-09-17T01:12:20;0.90;;;0.90;;
20699;SDS011;10511;51.232;9.420;2022-09-17T01:14:59;1.00;;;1.00;;
20699;SDS011;10511;51.232;9.420;2022-09-17T01:17:38;1.00;;;1.00;;
20699;SDS011;10511;51.232;9.420;2022-09-17T01:20:21;0.97;;;0.97;;
20699;SDS011;10511;51.232;9.420;2022-09-17T01:23:20;0.90;;;0.90;;
20699;SDS011;10511;51.232;9.420;2022-09-17T01:26:30;1.00;;;1.00;;
20699;SDS011;10511;51.232;9.420;2022-09-17T01:29:12;1.00;;;1.00;;
20699;SDS011;10511;51.232;9.420;2022-09-17T01:31:49;1.00;;;1.00;;
20699;SDS011;10511;51.232;9.420;2022-09-17T01:34:23;0.90;;;0.90;;
20699;SDS011;10511;51.232;9.420;2022-09-17T01:36:59;0.90;;;0.90;;
20699;SDS011;10511;51.232;9.420;2022-09-17T01:39:31;0.90;;;0.90;;
20699;SDS011;10511;51.232;9.420;2022-09-17T01:42:08;0.90;;;0.90;;
20699;SDS011;10511;51.232;9.420;2022-09-17T01:44:44;1.00;;;1.00;;
20699;SDS011;10511;51.232;9.420;2022-09-17T01:47:19;0.90;;;0.90;;
20699;SDS011;10511;51.232;9.420;2022-09-17T01:49:49;0.90;;;0.90;;
20699;SDS011;10511;51.232;9.420;2022-09-17T01:52:18;0.90;;;0.90;;
20699;SDS011;10511;51.232;9.420;2022-09-17T01:54:46;0.90;;;0.90;;
20699;SDS011;10511;51.232;9.420;2022-09-17T01:57:17;0.90;;;0.90;;
20699;SDS011;10511;51.232;9.420;2022-09-17T01:59:48;0.90;;;0.90;;
20699;SDS011;10511;51.232;9.420;2022-09-17T02:02:22;0.90;;;0.90;;
20699;SDS011;10511;51.232;9.420;2022-09-17T02:04:54;0.90;;;0.90;;
20699;SDS011;10511;51.232;9.420;2022-09-17T02:07:24;0.90;;;0.90;;
20699;SDS011;10511;51.232;9.420;2022-09-17T02:09:53;1.00;;;1.00;;
20699;SDS011;10511;51.232;9.420;2022-09-17T02:12:27;1.00;;;1.00;;
20699;SDS011;10511;51.232;9.420;2022-09-17T02:14:59;1.03;;;1.03;;
20699;SDS011;10511;51.232;9.420;2022-09-17T02:17:31;0.90;;;0.90;;
20699;SDS011;10511;51.232;9.420;2022-09-17T02:20:02;0.90;;;0.90;;
20699;SDS011;10511;51.232;9.420;2022-09-17T02:22:32;1.00;;;1.00;;
20699;SDS011;10511;51.232;9.420;2022-09-17T02:25:04;0.90;;;0.90;;
20699;SDS011;10511;51.232;9.420;2022-09-17T02:27:41;0.90;;;0.90;;
20699;SDS011;10511;51.232;9.420;2022-09-17T02:30:16;0.90;;;0.90;;
20699;SDS011;10511;51.232;9.420;2022-09-17T02:32:46;0.90;;;0.90;;
20699;SDS011;10511;51.232;9.420;2022-09-17T02:35:14;0.90;;;0.90;;
20699;SDS011;10511;51.232;9.420;2022-09-17T02:37:41;0.90;;;0.90;;
20699;SDS011;10511;51.232;9.420;2022-09-17T02:40:09;0.93;;;0.93;;
20699;SDS011;10511;51.232;9.420;2022-09-17T02:42:42;0.90;;;0.90;;
20699;SDS011;10511;51.232;9.420;2022-09-17T02:45:26;0.90;;;0.90;;
20699;SDS011;10511;51.232;9.420;2022-09-17T02:48:05;0.90;;;0.90;;
20699;SDS011;10511;51.232;9.420;2022-09-17T02:53:38;0.90;;;0.90;;
20699;SDS011;10511;51.232;9.420;2022-09-17T02:56:15;0.90;;;0.90;;
20699;SDS011;10511;51.232;9.420;2022-09-17T02:58:46;1.00;;;1.00;;
20699;SDS011;10511;51.232;9.420;2022-09-17T03:01:19;1.00;;;1.00;;
20699;SDS011;10511;51.232;9.420;2022-09-17T03:03:52;1.00;;;1.00;;
20699;SDS011;10511;51.232;9.420;2022-09-17T03:06:22;0.93;;;0.93;;
20699;SDS011;10511;51.232;9.420;2022-09-17T03:08:50;0.90;;;0.90;;
20699;SDS011;10511;51.232;9.420;2022-09-17T03:11:17;1.00;;;1.00;;
20699;SDS011;10511;51.232;9.420;2022-09-17T03:13:45;0.90;;;0.90;;
20699;SDS011;10511;51.232;9.420;2022-09-17T03:16:12;0.90;;;0.90;;
20699;SDS011;10511;51.232;9.420;2022-09-17T03:18:39;1.00;;;1.00;;
20699;SDS011;10511;51.232;9.420;2022-09-17T03:21:07;0.90;;;0.90;;
20699;SDS011;10511;51.232;9.420;2022-09-17T03:23:34;1.00;;;1.00;;
20699;SDS011;10511;51.232;9.420;2022-09-17T03:26:01;1.00;;;1.00;;
20699;SDS011;10511;51.232;9.420;2022-09-17T03:28:28;1.00;;;1.00;;
20699;SDS011;10511;51.232;9.420;2022-09-17T03:30:55;0.90;;;0.90;;
20699;SDS011;10511;51.232;9.420;2022-09-17T03:33:22;0.90;;;0.90;;
20699;SDS011;10511;51.232;9.420;2022-09-17T03:35:49;0.90;;;0.90;;
20699;SDS011;10511;51.232;9.420;2022-09-17T03:38:17;0.97;;;0.97;;
20699;SDS011;10511;51.232;9.420;2022-09-17T03:40:44;0.90;;;0.90;;
20699;SDS011;10511;51.232;9.420;2022-09-17T03:43:22;0.90;;;0.90;;
20699;SDS011;10511;51.232;9.420;2022-09-17T03:45:49;0.90;;;0.90;;
20699;SDS011;10511;51.232;9.420;2022-09-17T03:48:16;0.90;;;0.90;;
20699;SDS011;10511;51.232;9.420;2022-09-17T03:50:43;0.83;;;0.83;;
20699;SDS011;10511;51.232;9.420;2022-09-17T03:53:10;0.90;;;0.90;;
20699;SDS011;10511;51.232;9.420;2022-09-17T03:55:38;0.90;;;0.90;;
20699;SDS011;10511;51.232;9.420;2022-09-17T03:58:05;1.00;;;1.00;;
20699;SDS011;10511;51.232;9.420;2022-09-17T04:00:33;0.93;;;0.93;;
20699;SDS011;10511;51.232;9.420;2022-09-17T04:03:01;0.90;;;0.90;;
20699;SDS011;10511;51.232;9.420;2022-09-17T04:05:28;0.90;;;0.90;;
20699;SDS011;10511;51.232;9.420;2022-09-17T04:07:55;0.93;;;0.93;;
20699;SDS011;10511;51.232;9.420;2022-09-17T04:10:22;0.90;;;0.90;;
20699;SDS011;10511;51.232;9.420;2022-09-17T04:12:50;1.00;;;1.00;;
20699;SDS011;10511;51.232;9.420;2022-09-17T04:15:17;0.90;;;0.90;;
20699;SDS011;10511;51.232;9.420;2022-09-17T04:17:44;0.90;;;0.90;;
20699;SDS011;10511;51.232;9.420;2022-09-17T04:20:11;0.90;;;0.90;;
20699;SDS011;10511;51.232;9.420;2022-09-17T04:22:38;0.90;;;0.90;;
20699;SDS011;10511;51.232;9.420;2022-09-17T04:25:05;0.90;;;0.90;;
20699;SDS011;10511;51.232;9.420;2022-09-17T04:27:32;0.80;;;0.80;;
20699;SDS011;10511;51.232;9.420;2022-09-17T04:30:00;0.90;;;0.90;;
20699;SDS011;10511;51.232;9.420;2022-09-17T04:32:27;0.90;;;0.90;;
20699;SDS011;10511;51.232;9.420;2022-09-17T04:34:55;1.00;;;1.00;;
20699;SDS011;10511;51.232;9.420;2022-09-17T04:37:21;0.97;;;0.97;;
20699;SDS011;10511;51.232;9.420;2022-09-17T04:39:49;0.97;;;0.97;;
20699;SDS011;10511;51.232;9.420;2022-09-17T04:42:16;0.90;;;0.90;;
20699;SDS011;10511;51.232;9.420;2022-09-17T04:44:43;0.90;;;0.90;;
20699;SDS011;10511;51.232;9.420;2022-09-17T04:47:11;0.87;;;0.87;;
20699;SDS011;10511;51.232;9.420;2022-09-17T04:49:39;1.00;;;1.00;;
20699;SDS011;10511;51.232;9.420;2022-09-17T04:52:05;0.90;;;0.90;;
20699;SDS011;10511;51.232;9.420;2022-09-17T04:54:32;0.93;;;0.93;;
20699;SDS011;10511;51.232;9.420;2022-09-17T04:56:59;0.90;;;0.90;;
20699;SDS011;10511;51.232;9.420;2022-09-17T04:59:26;1.00;;;1.00;;
20699;SDS011;10511;51.232;9.420;2022-09-17T05:01:53;0.90;;;0.90;;
20699;SDS011;10511;51.232;9.420;2022-09-17T05:04:22;0.90;;;0.90;;
20699;SDS011;10511;51.232;9.420;2022-09-17T05:06:49;0.90;;;0.90;;
20699;SDS011;10511;51.232;9.420;2022-09-17T05:09:16;1.00;;;1.00;;
20699;SDS011;10511;51.232;9.420;2022-09-17T05:11:43;1.00;;;1.00;;
20699;SDS011;10511;51.232;9.420;2022-09-17T05:14:10;1.00;;;1.00;;
20699;SDS011;10511;51.232;9.420;2022-09-17T05:16:38;0.90;;;0.90;;
20699;SDS011;10511;51.232;9.420;2022-09-17T05:19:05;0.90;;;0.90;;
20699;SDS011;10511;51.232;9.420;2022-09-17T05:21:33;0.90;;;0.90;;
20699;SDS011;10511;51.232;9.420;2022-09-17T05:24:00;1.00;;;1.00;;
20699;SDS011;10511;51.232;9.420;2022-09-17T05:26:27;1.00;;;1.00;;
20699;SDS011;10511;51.232;9.420;2022-09-17T05:28:54;0.90;;;0.90;;
20699;SDS011;10511;51.232;9.420;2022-09-17T05:31:21;1.00;;;1.00;;
20699;SDS011;10511;51.232;9.420;2022-09-17T05:33:48;1.00;;;1.00;;
20699;SDS011;10511;51.232;9.420;2022-09-17T05:36:15;1.00;;;1.00;;
20699;SDS011;10511;51.232;9.420;2022-09-17T05:38:43;0.90;;;0.90;;
20699;SDS011;10511;51.232;9.420;2022-09-17T05:41:10;0.90;;;0.90;;
20699;SDS011;10511;51.232;9.420;2022-09-17T05:43:37;0.90;;;0.90;;
20699;SDS011;10511;51.232;9.420;2022-09-17T05:46:04;0.90;;;0.90;;
20699;SDS011;10511;51.232;9.420;2022-09-17T05:48:31;1.00;;;1.00;;
20699;SDS011;10511;51.232;9.420;2022-09-17T05:50:58;0.90;;;0.90;;
20699;SDS011;10511;51.232;9.420;2022-09-17T05:53:25;1.00;;;1.00;;
20699;SDS011;10511;51.232;9.420;2022-09-17T05:55:56;0.90;;;0.90;;
20699;SDS011;10511;51.232;9.420;2022-09-17T05:58:23;0.90;;;0.90;;
20699;SDS011;10511;51.232;9.420;2022-09-17T06:00:51;1.03;;;1.03;;
20699;SDS011;10511;51.232;9.420;2022-09-17T06:03:19;1.00;;;1.00;;
20699;SDS011;10511;51.232;9.420;2022-09-17T06:05:51;0.90;;;0.90;;
20699;SDS011;10511;51.232;9.420;2022-09-17T06:08:19;1.00;;;1.00;;
20699;SDS011;10511;51.232;9.420;2022-09-17T06:10:46;1.00;;;1.00;;
20699;SDS011;10511;51.232;9.420;2022-09-17T06:13:15;0.97;;;0.97;;
20699;SDS011;10511;51.232;9.420;2022-09-17T06:15:47;0.90;;;0.90;;
20699;SDS011;10511;51.232;9.420;2022-09-17T06:18:15;0.90;;;0.90;;
20699;SDS011;10511;51.232;9.420;2022-09-17T06:20:42;0.90;;;0.90;;
20699;SDS011;10511;51.232;9.420;2022-09-17T06:23:17;0.90;;;0.90;;
20699;SDS011;10511;51.232;9.420;2022-09-17T06:25:48;0.90;;;0.90;;
20699;SDS011;10511;51.232;9.420;2022-09-17T06:28:18;0.90;;;0.90;;
20699;SDS011;10511;51.232;9.420;2022-09-17T06:30:45;0.90;;;0.90;;
20699;SDS011;10511;51.232;9.420;2022-09-17T06:33:12;1.00;;;1.00;;
20699;SDS011;10511;51.232;9.420;2022-09-17T06:35:39;0.93;;;0.93;;
20699;SDS011;10511;51.232;9.420;2022-09-17T06:38:07;0.90;;;0.90;;
20699;SDS011;10511;51.232;9.420;2022-09-17T06:40:34;0.80;;;0.80;;
20699;SDS011;10511;51.232;9.420;2022-09-17T06:43:01;0.90;;;0.90;;
20699;SDS011;10511;51.232;9.420;2022-09-17T06:45:29;0.83;;;0.83;;
20699;SDS011;10511;51.232;9.420;2022-09-17T06:47:56;0.90;;;0.90;;
20699;SDS011;10511;51.232;9.420;2022-09-17T06:50:23;0.90;;;0.90;;
20699;SDS011;10511;51.232;9.420;2022-09-17T06:52:50;0.90;;;0.90;;
20699;SDS011;10511;51.232;9.420;2022-09-17T06:55:19;0.90;;;0.90;;
20699;SDS011;10511;51.232;9.420;2022-09-17T06:57:46;0.80;;;0.80;;
20699;SDS011;10511;51.232;9.420;2022-09-17T07:00:13;0.83;;;0.83;;
20699;SDS011;10511;51.232;9.420;2022-09-17T07:02:42;0.83;;;0.83;;
20699;SDS011;10511;51.232;9.420;2022-09-17T07:05:09;0.80;;;0.80;;
20699;SDS011;10511;51.232;9.420;2022-09-17T07:07:36;0.90;;;0.90;;
20699;SDS011;10511;51.232;9.420;2022-09-17T07:10:04;0.90;;;0.90;;
20699;SDS011;10511;51.232;9.420;2022-09-17T07:12:31;0.90;;;0.90;;
20699;SDS011;10511;51.232;9.420;2022-09-17T07:14:58;0.90;;;0.90;;
20699;SDS011;10511;51.232;9.420;2022-09-17T07:17:27;0.90;;;0.90;;
20699;SDS011;10511;51.232;9.420;2022-09-17T07:19:56;0.90;;;0.90;;
20699;SDS011;10511;51.232;9.420;2022-09-17T07:22:23;0.90;;;0.90;;
20699;SDS011;10511;51.232;9.420;2022-09-17T07:24:50;0.90;;;0.90;;
20699;SDS011;10511;51.232;9.420;2022-09-17T07:27:18;0.90;;;0.90;;
20699;SDS011;10511;51.232;9.420;2022-09-17T07:29:45;0.90;;;0.90;;
20699;SDS011;10511;51.232;9.420;2022-09-17T07:32:12;0.90;;;0.90;;
20699;SDS011;10511;51.232;9.420;2022-09-17T07:34:39;0.90;;;0.90;;
20699;SDS011;10511;51.232;9.420;2022-09-17T07:37:07;0.90;;;0.90;;
20699;SDS011;10511;51.232;9.420;2022-09-17T07:39:34;0.90;;;0.90;;
20699;SDS011;10511;51.232;9.420;2022-09-17T07:42:01;0.90;;;0.90;;
20699;SDS011;10511;51.232;9.420;2022-09-17T07:44:28;0.90;;;0.90;;
20699;SDS011;10511;51.232;9.420;2022-09-17T07:46:55;0.90;;;0.90;;
20699;SDS011;10511;51.232;9.420;2022-09-17T07:49:29;0.90;;;0.90;;
20699;SDS011;10511;51.232;9.420;2022-09-17T07:52:04;0.90;;;0.90;;
20699;SDS011;10511;51.232;9.420;2022-09-17T07:54:33;0.90;;;0.90;;
20699;SDS011;10511;51.232;9.420;2022-09-17T07:57:02;0.90;;;0.90;;
20699;SDS011;10511;51.232;9.420;2022-09-17T07:59:28;0.90;;;0.90;;
20699;SDS011;10511;51.232;9.420;2022-09-17T08:01:55;0.90;;;0.90;;
20699;SDS011;10511;51.232;9.420;2022-09-17T08:04:23;0.90;;;0.90;;
20699;SDS011;10511;51.232;9.420;2022-09-17T08:06:50;0.90;;;0.90;;
20699;SDS011;10511;51.232;9.420;2022-09-17T08:09:17;0.90;;;0.90;;
20699;SDS011;10511;51.232;9.420;2022-09-17T08:11:45;0.90;;;0.90;;
20699;SDS011;10511;51.232;9.420;2022-09-17T08:14:13;0.90;;;0.90;;
20699;SDS011;10511;51.232;9.420;2022-09-17T08:16:41;0.90;;;0.90;;
20699;SDS011;10511;51.232;9.420;2022-09-17T08:19:09;0.90;;;0.90;;
20699;SDS011;10511;51.232;9.420;2022-09-17T08:21:36;1.10;;;1.10;;
20699;SDS011;10511;51.232;9.420;2022-09-17T08:24:04;1.00;;;1.00;;
20699;SDS011;10511;51.232;9.420;2022-09-17T08:26:31;0.90;;;0.90;;
20699;SDS011;10511;51.232;9.420;2022-09-17T08:28:59;0.90;;;0.90;;
20699;SDS011;10511;51.232;9.420;2022-09-17T08:31:26;0.90;;;0.90;;
20699;SDS011;10511;51.232;9.420;2022-09-17T08:33:54;0.80;;;0.80;;
20699;SDS011;10511;51.232;9.420;2022-09-17T08:36:21;0.80;;;0.80;;
20699;SDS011;10511;51.232;9.420;2022-09-17T08:38:51;0.80;;;0.80;;
20699;SDS011;10511;51.232;9.420;2022-09-17T08:41:20;0.80;;;0.80;;
20699;SDS011;10511;51.232;9.420;2022-09-17T08:43:55;0.80;;;0.80;;
20699;SDS011;10511;51.232;9.420;2022-09-17T08:46:35;0.80;;;0.80;;
20699;SDS011;10511;51.232;9.420;2022-09-17T08:49:10;0.90;;;0.90;;
20699;SDS011;10511;51.232;9.420;2022-09-17T08:51:42;0.87;;;0.87;;
20699;SDS011;10511;51.232;9.420;2022-09-17T08:54:21;0.83;;;0.83;;
20699;SDS011;10511;51.232;9.420;2022-09-17T08:57:00;0.80;;;0.80;;
20699;SDS011;10511;51.232;9.420;2022-09-17T08:59:40;0.83;;;0.83;;
20699;SDS011;10511;51.232;9.420;2022-09-17T09:02:17;0.80;;;0.80;;
20699;SDS011;10511;51.232;9.420;2022-09-17T09:04:57;0.80;;;0.80;;
20699;SDS011;10511;51.232;9.420;2022-09-17T09:07:29;0.80;;;0.80;;
20699;SDS011;10511;51.232;9.420;2022-09-17T09:10:09;0.80;;;0.80;;
20699;SDS011;10511;51.232;9.420;2022-09-17T09:12:40;0.90;;;0.90;;
20699;SDS011;10511;51.232;9.420;2022-09-17T09:15:19;0.80;;;0.80;;
20699;SDS011;10511;51.232;9.420;2022-09-17T09:17:53;0.80;;;0.80;;
20699;SDS011;10511;51.232;9.420;2022-09-17T09:20:33;0.80;;;0.80;;
20699;SDS011;10511;51.232;9.420;2022-09-17T09:23:06;0.80;;;0.80;;
20699;SDS011;10511;51.232;9.420;2022-09-17T09:25:41;0.80;;;0.80;;
20699;SDS011;10511;51.232;9.420;2022-09-17T09:28:34;0.90;;;0.90;;
20699;SDS011;10511;51.232;9.420;2022-09-17T09:31:14;0.80;;;0.80;;
20699;SDS011;10511;51.232;9.420;2022-09-17T09:33:50;0.80;;;0.80;;
20699;SDS011;10511;51.232;9.420;2022-09-17T09:36:17;0.80;;;0.80;;
20699;SDS011;10511;51.232;9.420;2022-09-17T09:38:47;0.87;;;0.87;;
20699;SDS011;10511;51.232;9.420;2022-09-17T09:41:23;0.80;;;0.80;;
20699;SDS011;10511;51.232;9.420;2022-09-17T09:44:00;0.80;;;0.80;;
20699;SDS011;10511;51.232;9.420;2022-09-17T09:49:31;0.90;;;0.90;;
20699;SDS011;10511;51.232;9.420;2022-09-17T09:52:11;0.80;;;0.80;;
20699;SDS011;10511;51.232;9.420;2022-09-17T09:54:49;0.87;;;0.87;;
20699;SDS011;10511;51.232;9.420;2022-09-17T09:57:29;0.80;;;0.80;;
20699;SDS011;10511;51.232;9.420;2022-09-17T10:00:22;0.80;;;0.80;;
20699;SDS011;10511;51.232;9.420;2022-09-17T10:02:54;0.80;;;0.80;;
20699;SDS011;10511;51.232;9.420;2022-09-17T10:05:26;0.80;;;0.80;;
20699;SDS011;10511;51.232;9.420;2022-09-17T10:07:53;0.80;;;0.80;;
20699;SDS011;10511;51.232;9.420;2022-09-17T10:10:20;0.80;;;0.80;;
20699;SDS011;10511;51.232;9.420;2022-09-17T10:12:47;0.87;;;0.87;;
20699;SDS011;10511;51.232;9.420;2022-09-17T10:15:22;0.80;;;0.80;;
20699;SDS011;10511;51.232;9.420;2022-09-17T10:17:55;0.80;;;0.80;;
20699;SDS011;10511;51.232;9.420;2022-09-17T10:20:47;0.80;;;0.80;;
20699;SDS011;10511;51.232;9.420;2022-09-17T10:23:15;0.80;;;0.80;;
20699;SDS011;10511;51.232;9.420;2022-09-17T10:25:42;0.80;;;0.80;;
20699;SDS011;10511;51.232;9.420;2022-09-17T10:28:20;0.90;;;0.90;;
20699;SDS011;10511;51.232;9.420;2022-09-17T10:31:00;0.70;;;0.70;;
20699;SDS011;10511;51.232;9.420;2022-09-17T10:33:32;0.80;;;0.80;;
20699;SDS011;10511;51.232;9.420;2022-09-17T10:36:02;0.80;;;0.80;;
20699;SDS011;10511;51.232;9.420;2022-09-17T10:38:32;0.77;;;0.77;;
20699;SDS011;10511;51.232;9.420;2022-09-17T10:41:12;0.80;;;0.80;;
20699;SDS011;10511;51.232;9.420;2022-09-17T10:43:41;0.80;;;0.80;;
20699;SDS011;10511;51.232;9.420;2022-09-17T10:46:09;0.77;;;0.77;;
20699;SDS011;10511;51.232;9.420;2022-09-17T10:48:50;0.80;;;0.80;;
20699;SDS011;10511;51.232;9.420;2022-09-17T10:51:25;0.70;;;0.70;;
20699;SDS011;10511;51.232;9.420;2022-09-17T10:53:55;0.77;;;0.77;;
20699;SDS011;10511;51.232;9.420;2022-09-17T10:56:41;0.90;;;0.90;;
20699;SDS011;10511;51.232;9.420;2022-09-17T10:59:22;0.97;;;0.97;;
20699;SDS011;10511;51.232;9.420;2022-09-17T11:02:20;0.90;;;0.90;;
20699;SDS011;10511;51.232;9.420;2022-09-17T11:05:11;0.80;;;0.80;;
20699;SDS011;10511;51.232;9.420;2022-09-17T11:07:55;0.80;;;0.80;;
20699;SDS011;10511;51.232;9.420;2022-09-17T11:10:29;0.80;;;0.80;;
20699;SDS011;10511;51.232;9.420;2022-09-17T11:13:05;0.80;;;0.80;;
20699;SDS011;10511;51.232;9.420;2022-09-17T11:15:45;0.83;;;0.83;;
20699;SDS011;10511;51.232;9.420;2022-09-17T11:18:23;0.97;;;0.97;;
20699;SDS011;10511;51.232;9.420;2022-09-17T11:21:20;0.90;;;0.90;;
20699;SDS011;10511;51.232;9.420;2022-09-17T11:24:11;0.90;;;0.90;;
20699;SDS011;10511;51.232;9.420;2022-09-17T11:27:12;0.90;;;0.90;;
20699;SDS011;10511;51.232;9.420;2022-09-17T11:30:00;0.80;;;0.80;;
20699;SDS011;10511;51.232;9.420;2022-09-17T11:32:36;0.90;;;0.90;;
20699;SDS011;10511;51.232;9.420;2022-09-17T11:35:22;0.80;;;0.80;;
20699;SDS011;10511;51.232;9.420;2022-09-17T11:37:54;0.80;;;0.80;;
20699;SDS011;10511;51.232;9.420;2022-09-17T11:40:29;0.80;;;0.80;;
20699;SDS011;10511;51.232;9.420;2022-09-17T11:43:03;0.80;;;0.80;;
20699;SDS011;10511;51.232;9.420;2022-09-17T11:45:40;0.80;;;0.80;;
20699;SDS011;10511;51.232;9.420;2022-09-17T11:48:16;0.70;;;0.70;;
20699;SDS011;10511;51.232;9.420;2022-09-17T11:50:46;0.77;;;0.77;;
20699;SDS011;10511;51.232;9.420;2022-09-17T11:53:20;0.90;;;0.90;;
20699;SDS011;10511;51.232;9.420;2022-09-17T11:55:54;0.80;;;0.80;;
20699;SDS011;10511;51.232;9.420;2022-09-17T11:58:25;0.80;;;0.80;;
20699;SDS011;10511;51.232;9.420;2022-09-17T12:00:58;0.70;;;0.70;;
20699;SDS011;10511;51.232;9.420;2022-09-17T12:03:31;0.80;;;0.80;;
20699;SDS011;10511;51.232;9.420;2022-09-17T12:06:01;0.80;;;0.80;;
20699;SDS011;10511;51.232;9.420;2022-09-17T12:08:36;0.80;;;0.80;;
20699;SDS011;10511;51.232;9.420;2022-09-17T12:11:08;0.80;;;0.80;;
20699;SDS011;10511;51.232;9.420;2022-09-17T12:13:40;0.90;;;0.90;;
20699;SDS011;10511;51.232;9.420;2022-09-17T12:16:12;0.90;;;0.90;;
20699;SDS011;10511;51.232;9.420;2022-09-17T12:18:50;0.80;;;0.80;;
20699;SDS011;10511;51.232;9.420;2022-09-17T12:21:25;0.80;;;0.80;;
20699;SDS011;10511;51.232;9.420;2022-09-17T12:23:58;0.80;;;0.80;;
20699;SDS011;10511;51.232;9.420;2022-09-17T12:26:33;0.80;;;0.80;;
20699;SDS011;10511;51.232;9.420;2022-09-17T12:29:29;0.80;;;0.80;;
20699;SDS011;10511;51.232;9.420;2022-09-17T12:32:17;0.70;;;0.70;;
20699;SDS011;10511;51.232;9.420;2022-09-17T12:34:56;0.90;;;0.90;;
20699;SDS011;10511;51.232;9.420;2022-09-17T12:37:33;0.80;;;0.80;;
20699;SDS011;10511;51.232;9.420;2022-09-17T12:40:11;0.70;;;0.70;;
20699;SDS011;10511;51.232;9.420;2022-09-17T12:42:58;0.80;;;0.80;;
20699;SDS011;10511;51.232;9.420;2022-09-17T12:45:41;0.90;;;0.90;;
20699;SDS011;10511;51.232;9.420;2022-09-17T12:48:32;0.80;;;0.80;;
20699;SDS011;10511;51.232;9.420;2022-09-17T12:51:17;0.80;;;0.80;;
20699;SDS011;10511;51.232;9.420;2022-09-17T12:53:55;0.80;;;0.80;;
20699;SDS011;10511;51.232;9.420;2022-09-17T12:56:38;0.80;;;0.80;;
20699;SDS011;10511;51.232;9.420;2022-09-17T12:59:15;0.80;;;0.80;;
20699;SDS011;10511;51.232;9.420;2022-09-17T13:01:45;0.80;;;0.80;;
20699;SDS011;10511;51.232;9.420;2022-09-17T13:04:25;0.83;;;0.83;;
20699;SDS011;10511;51.232;9.420;2022-09-17T13:10:12;0.70;;;0.70;;
20699;SDS011;10511;51.232;9.420;2022-09-17T13:12:54;0.80;;;0.80;;
20699;SDS011;10511;51.232;9.420;2022-09-17T13:15:33;0.87;;;0.87;;
20699;SDS011;10511;51.232;9.420;2022-09-17T13:18:10;0.70;;;0.70;;
20699;SDS011;10511;51.232;9.420;2022-09-17T13:20:42;0.70;;;0.70;;
20699;SDS011;10511;51.232;9.420;2022-09-17T13:23:28;0.80;;;0.80;;
20699;SDS011;10511;51.232;9.420;2022-09-17T13:26:03;0.80;;;0.80;;
20699;SDS011;10511;51.232;9.420;2022-09-17T13:28:42;0.80;;;0.80;;
20699;SDS011;10511;51.232;9.420;2022-09-17T13:31:11;0.80;;;0.80;;
20699;SDS011;10511;51.232;9.420;2022-09-17T13:33:55;0.77;;;0.77;;
20699;SDS011;10511;51.232;9.420;2022-09-17T13:36:45;0.80;;;0.80;;
20699;SDS011;10511;51.232;9.420;2022-09-17T13:39:35;0.70;;;0.70;;
20699;SDS011;10511;51.232;9.420;2022-09-17T13:42:15;0.70;;;0.70;;
20699;SDS011;10511;51.232;9.420;2022-09-17T13:44:49;0.77;;;0.77;;
20699;SDS011;10511;51.232;9.420;2022-09-17T13:47:20;0.70;;;0.70;;
20699;SDS011;10511;51.232;9.420;2022-09-17T13:49:51;0.80;;;0.80;;
20699;SDS011;10511;51.232;9.420;2022-09-17T13:52:34;0.80;;;0.80;;
20699;SDS011;10511;51.232;9.420;2022-09-17T13:55:04;0.70;;;0.70;;
20699;SDS011;10511;51.232;9.420;2022-09-17T13:57:32;0.80;;;0.80;;
20699;SDS011;10511;51.232;9.420;2022-09-17T14:09:31;0.80;;;0.80;;
20699;SDS011;10511;51.232;9.420;2022-09-17T14:15:32;0.80;;;0.80;;
20699;SDS011;10511;51.232;9.420;2022-09-17T14:18:04;0.70;;;0.70;;
20699;SDS011;10511;51.232;9.420;2022-09-17T14:21:11;0.80;;;0.80;;
20699;SDS011;10511;51.232;9.420;2022-09-17T14:23:45;0.80;;;0.80;;
20699;SDS011;10511;51.232;9.420;2022-09-17T14:26:17;0.80;;;0.80;;
20699;SDS011;10511;51.232;9.420;2022-09-17T14:28:51;0.80;;;0.80;;
20699;SDS011;10511;51.232;9.420;2022-09-17T14:31:29;0.80;;;0.80;;
20699;SDS011;10511;51.232;9.420;2022-09-17T14:34:01;0.80;;;0.80;;
20699;SDS011;10511;51.232;9.420;2022-09-17T14:36:30;0.80;;;0.80;;
20699;SDS011;10511;51.232;9.420;2022-09-17T14:39:00;0.80;;;0.80;;
20699;SDS011;10511;51.232;9.420;2022-09-17T14:41:30;0.80;;;0.80;;
20699;SDS011;10511;51.232;9.420;2022-09-17T14:44:04;0.70;;;0.70;;
20699;SDS011;10511;51.232;9.420;2022-09-17T14:46:35;0.80;;;0.80;;
20699;SDS011;10511;51.232;9.420;2022-09-17T14:49:13;0.77;;;0.77;;
20699;SDS011;10511;51.232;9.420;2022-09-17T14:51:43;0.70;;;0.70;;
20699;SDS011;10511;51.232;9.420;2022-09-17T14:54:17;0.70;;;0.70;;
20699;SDS011;10511;51.232;9.420;2022-09-17T14:56:54;0.70;;;0.70;;
20699;SDS011;10511;51.232;9.420;2022-09-17T14:59:36;0.80;;;0.80;;
20699;SDS011;10511;51.232;9.420;2022-09-17T15:02:26;1.00;;;1.00;;
20699;SDS011;10511;51.232;9.420;2022-09-17T15:04:58;0.97;;;0.97;;
20699;SDS011;10511;51.232;9.420;2022-09-17T15:07:26;1.00;;;1.00;;
20699;SDS011;10511;51.232;9.420;2022-09-17T15:09:53;1.10;;;1.10;;
20699;SDS011;10511;51.232;9.420;2022-09-17T15:12:30;1.00;;;1.00;;
20699;SDS011;10511;51.232;9.420;2022-09-17T15:14:58;1.00;;;1.00;;
20699;SDS011;10511;51.232;9.420;2022-09-17T15:17:25;1.00;;;1.00;;
20699;SDS011;10511;51.232;9.420;2022-09-17T15:19:52;0.90;;;0.90;;
20699;SDS011;10511;51.232;9.420;2022-09-17T15:22:26;0.93;;;0.93;;
20699;SDS011;10511;51.232;9.420;2022-09-17T15:24:55;1.00;;;1.00;;
20699;SDS011;10511;51.232;9.420;2022-09-17T15:27:24;0.90;;;0.90;;
20699;SDS011;10511;51.232;9.420;2022-09-17T15:29:55;0.90;;;0.90;;
20699;SDS011;10511;51.232;9.420;2022-09-17T15:32:23;0.90;;;0.90;;
20699;SDS011;10511;51.232;9.420;2022-09-17T15:37:45;0.90;;;0.90;;
20699;SDS011;10511;51.232;9.420;2022-09-17T15:40:14;0.90;;;0.90;;
20699;SDS011;10511;51.232;9.420;2022-09-17T15:42:49;1.00;;;1.00;;
20699;SDS011;10511;51.232;9.420;2022-09-17T15:45:18;1.00;;;1.00;;
20699;SDS011;10511;51.232;9.420;2022-09-17T15:47:50;0.90;;;0.90;;